Lucas, Mississippi
Current Conditions -  °F | °C
As of 7:55 AM on Saturday 20 Dec 2014 (Local Time) from KPIB Reporting Station
Overcast Overcast  
Wind Chill:   Ceiling: 600
Heat Index:   Visibility: 7mi
Dew Point:   Wind: 8mph
Humidity: 87%   Direction: 30°NNE
Pressure: 30.18"   Gusts: NA
Location:  31.5969°N, 89.8752°W
Report Text: KPIB 201355Z AUTO 03007KT 7SM OVC006 07/05 A3018 RMK AO1
Loading
Personal Weather Stations






























Interactive Weather Map New forecast layout! Learn more

10-Day Weather Forecast

Advertisements
Track Severe Weather on mobile